Time;durP1;ratioP1;P1;durP2;ratioP2;P2;SDS_P1;SDS_P2;PMS_P1;PMS_P2;Temp;Humidity;BMP_temperature;BMP_pressure;BME280_temperature;BME280_humidity;BME280_pressure;Samples;Min_cycle;Max_cycle;Signal;HPM_P1;HPM_P2
2021/06/08 00:00:40;;;;;;;14.38;10.02;;;19.00;99.90;;;;;;5005382;28;20535;-75
2021/06/08 00:03:07;;;;;;;12.90;10.35;;;19.00;99.90;;;;;;5009323;28;20145;-76
2021/06/08 00:05:38;;;;;;;12.80;9.50;;;19.00;99.90;;;;;;4999305;28;20081;-75
2021/06/08 00:08:05;;;;;;;14.15;10.35;;;19.00;99.90;;;;;;5005289;28;20562;-74
2021/06/08 00:10:32;;;;;;;12.85;9.88;;;19.00;99.90;;;;;;5007959;28;20477;-75
2021/06/08 00:12:59;;;;;;;16.88;10.43;;;19.00;99.90;;;;;;5007501;28;20446;-75
2021/06/08 00:15:26;;;;;;;15.93;10.32;;;18.90;99.90;;;;;;5006347;28;20108;-74
2021/06/08 00:17:53;;;;;;;14.63;11.10;;;18.90;99.90;;;;;;5022638;28;20128;-74
2021/06/08 00:20:19;;;;;;;27.48;15.13;;;18.90;99.90;;;;;;5004336;28;20069;-75
2021/06/08 00:22:47;;;;;;;14.07;10.23;;;18.90;99.90;;;;;;5009281;28;20034;-75
2021/06/08 00:25:14;;;;;;;14.57;10.77;;;18.90;99.90;;;;;;5000486;28;20124;-75
2021/06/08 00:27:41;;;;;;;13.48;10.27;;;18.90;99.90;;;;;;5008721;28;20529;-75
2021/06/08 00:30:09;;;;;;;15.85;10.88;;;18.90;99.90;;;;;;5039519;28;20057;-74
2021/06/08 00:32:35;;;;;;;15.18;10.52;;;18.80;99.90;;;;;;5008211;28;20062;-74
2021/06/08 00:35:03;;;;;;;19.13;10.90;;;18.80;99.90;;;;;;5006180;28;20618;-75
2021/06/08 00:37:30;;;;;;;17.15;12.60;;;18.80;99.90;;;;;;5006162;28;20108;-75
2021/06/08 00:39:57;;;;;;;17.85;13.02;;;18.80;99.90;;;;;;5008299;28;20047;-75
2021/06/08 00:42:33;;;;;;;17.30;11.48;;;18.90;99.90;;;;;;5010781;28;20553;-75
2021/06/08 00:45:00;;;;;;;16.95;11.70;;;18.80;99.90;;;;;;5012300;28;20548;-75
2021/06/08 00:47:28;;;;;;;18.55;12.10;;;18.70;99.90;;;;;;5006915;28;20145;-75
2021/06/08 00:49:54;;;;;;;17.38;11.77;;;18.80;99.90;;;;;;5005500;28;20076;-75
2021/06/08 00:52:21;;;;;;;17.63;11.90;;;18.70;99.90;;;;;;5012283;28;20085;-75
2021/06/08 00:54:48;;;;;;;17.98;12.20;;;18.70;99.90;;;;;;5004804;28;20082;-75
2021/06/08 00:57:15;;;;;;;16.42;12.20;;;18.80;99.90;;;;;;5010575;28;20133;-75
2021/06/08 00:59:42;;;;;;;19.35;12.50;;;18.80;99.90;;;;;;5009236;28;20082;-75
2021/06/08 01:02:09;;;;;;;14.90;11.50;;;18.70;99.90;;;;;;5005989;28;20074;-75
2021/06/08 01:04:36;;;;;;;14.48;11.60;;;18.90;99.90;;;;;;5009850;28;20053;-75
2021/06/08 01:07:03;;;;;;;16.58;12.52;;;18.70;99.90;;;;;;5010051;28;20104;-74
2021/06/08 01:09:30;;;;;;;17.92;13.05;;;18.60;99.90;;;;;;5007268;28;20177;-74
2021/06/08 01:11:57;;;;;;;18.83;12.95;;;18.50;99.90;;;;;;5011058;28;20073;-74
2021/06/08 01:14:24;;;;;;;18.38;13.45;;;18.50;99.90;;;;;;5011815;28;20085;-74
2021/06/08 01:16:50;;;;;;;21.52;13.52;;;18.50;99.90;;;;;;4999872;28;20070;-74
2021/06/08 01:19:17;;;;;;;19.38;13.57;;;18.50;99.90;;;;;;5010178;28;20050;-75
2021/06/08 01:21:44;;;;;;;18.25;12.88;;;18.50;99.90;;;;;;5010888;28;20520;-74
2021/06/08 01:24:12;;;;;;;19.17;13.32;;;18.50;99.90;;;;;;5012574;28;20053;-75
2021/06/08 01:26:39;;;;;;;19.20;13.23;;;18.60;99.90;;;;;;5042725;28;20462;-76
2021/06/08 01:29:06;;;;;;;20.13;13.27;;;18.60;99.90;;;;;;5012468;28;20093;-76
2021/06/08 01:31:35;;;;;;;18.50;13.60;;;18.60;99.90;;;;;;5004553;28;20046;-75
2021/06/08 01:34:04;;;;;;;20.10;13.85;;;18.50;99.90;;;;;;5006252;28;20489;-74
2021/06/08 01:36:37;;;;;;;19.25;13.35;;;18.50;99.90;;;;;;5040483;28;20042;-75
2021/06/08 01:39:05;;;;;;;18.42;13.13;;;18.60;99.90;;;;;;5011637;28;20598;-74
2021/06/08 01:41:32;;;;;;;18.95;13.27;;;18.60;99.90;;;;;;5005569;28;20065;-74
2021/06/08 01:44:00;;;;;;;25.10;15.00;;;18.60;99.90;;;;;;5014084;28;20077;-73
2021/06/08 01:46:26;;;;;;;19.52;13.60;;;18.60;99.90;;;;;;5008843;28;20054;-75
2021/06/08 01:48:53;;;;;;;18.67;13.07;;;18.50;99.90;;;;;;5008526;28;20054;-78
2021/06/08 01:51:23;;;;;;;19.50;13.25;;;18.50;99.90;;;;;;5009033;28;20094;-78
2021/06/08 01:54:28;;;;;;;18.60;13.93;;;18.50;99.90;;;;;;5023034;28;20500;-78
2021/06/08 01:57:29;;;;;;;18.75;13.48;;;18.50;99.90;;;;;;5011606;28;20078;-77
2021/06/08 02:00:04;;;;;;;23.60;14.25;;;18.40;99.90;;;;;;5004202;28;20046;-77
2021/06/08 02:02:38;;;;;;;18.00;13.43;;;18.40;99.90;;;;;;5005727;28;20184;-78
2021/06/08 02:05:31;;;;;;;19.58;13.60;;;18.50;99.90;;;;;;5009758;28;20449;-78
2021/06/08 02:08:17;;;;;;;19.75;13.45;;;18.50;99.90;;;;;;5007035;28;20754;-78
2021/06/08 02:11:05;;;;;;;18.55;13.73;;;18.50;99.90;;;;;;5004995;28;20053;-76
2021/06/08 02:13:49;;;;;;;23.08;15.05;;;18.30;99.90;;;;;;5019214;28;20073;-77
2021/06/08 02:16:28;;;;;;;20.30;14.52;;;18.20;99.90;;;;;;5007128;28;20073;-77
2021/06/08 02:18:55;;;;;;;20.80;13.80;;;18.30;99.90;;;;;;5010529;28;20049;-78
2021/06/08 02:21:29;;;;;;;21.27;13.63;;;18.30;99.90;;;;;;5004347;28;20517;-78
2021/06/08 02:23:56;;;;;;;20.58;14.02;;;18.30;99.90;;;;;;5009945;28;20050;-77
2021/06/08 02:26:25;;;;;;;20.05;13.32;;;18.40;99.90;;;;;;5001600;28;20176;-77
2021/06/08 02:28:54;;;;;;;19.17;13.87;;;18.40;99.90;;;;;;5019804;28;20505;-77
2021/06/08 02:31:23;;;;;;;22.80;13.95;;;18.30;99.90;;;;;;5006975;28;20157;-76
2021/06/08 02:33:51;;;;;;;22.40;14.00;;;18.30;99.90;;;;;;5006085;28;20054;-79
2021/06/08 02:36:19;;;;;;;17.55;13.32;;;18.30;99.90;;;;;;5003588;28;20140;-78
2021/06/08 02:38:48;;;;;;;21.40;13.93;;;18.20;99.90;;;;;;5009296;28;20137;-78
2021/06/08 02:41:15;;;;;;;19.38;14.15;;;18.20;99.90;;;;;;5007961;28;20454;-77
2021/06/08 02:43:45;;;;;;;19.63;13.90;;;18.20;99.90;;;;;;5008887;28;20058;-78
2021/06/08 02:46:12;;;;;;;19.00;13.60;;;18.20;99.90;;;;;;5002133;28;20121;-77
2021/06/08 02:48:41;;;;;;;18.83;13.93;;;18.20;99.90;;;;;;5006798;28;20056;-78
2021/06/08 02:51:09;;;;;;;19.60;13.30;;;18.20;99.90;;;;;;5008299;28;20523;-79
2021/06/08 02:53:36;;;;;;;18.83;13.65;;;18.20;99.90;;;;;;5009085;28;20057;-79
2021/06/08 02:56:05;;;;;;;18.13;12.95;;;18.30;99.90;;;;;;5005828;28;20073;-79
2021/06/08 02:58:35;;;;;;;18.58;13.18;;;18.40;99.90;;;;;;5024277;28;20100;-78
2021/06/08 03:01:08;;;;;;;20.50;13.13;;;18.30;99.90;;;;;;5007009;28;20046;-79
2021/06/08 03:03:37;;;;;;;19.10;14.05;;;18.30;99.90;;;;;;5010575;28;20325;-78
2021/06/08 03:06:09;;;;;;;23.67;13.87;;;18.20;99.90;;;;;;5010262;28;20139;-78
2021/06/08 03:08:54;;;;;;;22.52;14.10;;;18.30;99.90;;;;;;5008766;28;20073;-77
2021/06/08 03:11:39;;;;;;;20.27;13.77;;;18.30;99.90;;;;;;5010349;28;20053;-78
2021/06/08 03:14:10;;;;;;;19.08;12.98;;;18.30;99.90;;;;;;5007335;28;20180;-79
2021/06/08 03:16:42;;;;;;;16.60;13.32;;;18.30;99.90;;;;;;5023823;28;20049;-78
2021/06/08 03:19:11;;;;;;;19.88;13.70;;;18.30;99.90;;;;;;5006350;28;20048;-78
2021/06/08 03:21:42;;;;;;;18.45;12.38;;;18.20;99.90;;;;;;5009393;28;20190;-78
2021/06/08 03:24:13;;;;;;;17.58;12.85;;;18.30;99.90;;;;;;5007175;28;20058;-74
2021/06/08 03:26:43;;;;;;;18.33;12.77;;;18.30;99.90;;;;;;5004964;28;20145;-74
2021/06/08 03:29:12;;;;;;;19.55;14.13;;;18.40;99.90;;;;;;5007873;28;20080;-74
2021/06/08 03:31:43;;;;;;;19.63;13.27;;;18.30;99.90;;;;;;5010126;28;20116;-75
2021/06/08 03:34:15;;;;;;;18.33;12.82;;;18.30;99.90;;;;;;5009008;28;20046;-78
2021/06/08 03:36:47;;;;;;;18.80;12.93;;;18.30;99.90;;;;;;5018584;28;20686;-80
2021/06/08 03:39:16;;;;;;;19.63;13.15;;;18.30;99.90;;;;;;5043875;28;20046;-78
2021/06/08 03:41:45;;;;;;;17.75;13.38;;;18.30;99.90;;;;;;5008015;28;20081;-79
2021/06/08 03:44:13;;;;;;;18.67;13.43;;;18.30;99.90;;;;;;5012030;28;20060;-78
2021/06/08 03:46:41;;;;;;;20.75;13.95;;;18.30;99.90;;;;;;5007959;28;20121;-78
2021/06/08 03:49:08;;;;;;;20.73;13.50;;;18.30;99.90;;;;;;5009062;28;20418;-78
2021/06/08 03:51:36;;;;;;;19.45;13.13;;;18.30;99.90;;;;;;5009449;28;20074;-77
2021/06/08 03:54:04;;;;;;;18.65;12.90;;;18.30;99.90;;;;;;5001644;28;20497;-78
2021/06/08 03:56:32;;;;;;;20.00;13.55;;;18.30;99.90;;;;;;5022929;28;20073;-78
2021/06/08 03:59:00;;;;;;;20.73;13.77;;;18.30;99.90;;;;;;5038463;28;20520;-77
2021/06/08 04:01:28;;;;;;;22.58;13.50;;;18.30;99.90;;;;;;5010146;28;20567;-78
2021/06/08 04:03:55;;;;;;;17.20;13.45;;;18.30;99.90;;;;;;5008123;28;20065;-78
2021/06/08 04:06:22;;;;;;;18.77;12.55;;;18.30;99.90;;;;;;5009508;28;20103;-78
2021/06/08 04:08:49;;;;;;;21.05;13.52;;;18.30;99.90;;;;;;5002784;28;20545;-75
2021/06/08 04:11:20;;;;;;;17.10;12.77;;;18.40;99.90;;;;;;5002376;28;20050;-74
2021/06/08 04:13:47;;;;;;;21.50;14.30;;;18.40;99.90;;;;;;5008269;28;20685;-75
2021/06/08 04:16:14;;;;;;;18.13;13.70;;;18.50;99.90;;;;;;5012970;28;20129;-74
2021/06/08 04:18:41;;;;;;;19.70;12.85;;;18.40;99.90;;;;;;5012559;28;20053;-74
2021/06/08 04:21:08;;;;;;;19.10;12.68;;;18.30;99.90;;;;;;5012920;28;20081;-75
2021/06/08 04:23:36;;;;;;;18.52;11.35;;;18.40;99.90;;;;;;5009558;28;20052;-75
2021/06/08 04:26:04;;;;;;;19.45;12.40;;;18.40;99.90;;;;;;5007938;28;20127;-75
2021/06/08 04:28:31;;;;;;;17.75;12.90;;;18.40;99.90;;;;;;5023096;28;20137;-75
2021/06/08 04:30:58;;;;;;;22.13;12.18;;;18.20;99.90;;;;;;5015613;28;20136;-75
2021/06/08 04:33:27;;;;;;;17.70;12.85;;;18.30;99.90;;;;;;5012067;28;20145;-75
2021/06/08 04:35:54;;;;;;;18.13;12.82;;;18.40;99.90;;;;;;5008655;28;20054;-75
2021/06/08 04:38:22;;;;;;;16.42;12.27;;;18.30;99.90;;;;;;5009978;28;20061;-75
2021/06/08 04:40:51;;;;;;;17.88;12.90;;;18.30;99.90;;;;;;5008487;28;20386;-75
2021/06/08 04:43:23;;;;;;;19.73;12.00;;;18.40;99.90;;;;;;5018622;28;20556;-75
2021/06/08 04:45:51;;;;;;;19.60;12.35;;;18.40;99.90;;;;;;5006074;28;20061;-75
2021/06/08 04:48:23;;;;;;;18.83;12.27;;;18.50;99.90;;;;;;5009245;28;20058;-75
2021/06/08 04:50:54;;;;;;;17.23;12.25;;;18.40;99.90;;;;;;5009337;28;20103;-74
2021/06/08 04:53:21;;;;;;;17.88;12.38;;;18.30;99.90;;;;;;5011211;28;20088;-78
2021/06/08 04:55:49;;;;;;;19.75;13.13;;;18.30;99.90;;;;;;5012062;28;20056;-78
2021/06/08 04:58:16;;;;;;;17.92;12.00;;;18.30;99.90;;;;;;5012458;28;20052;-79
2021/06/08 05:00:50;;;;;;;22.48;12.45;;;18.30;99.90;;;;;;5011451;28;20553;-79
2021/06/08 05:03:23;;;;;;;28.15;13.45;;;18.30;99.90;;;;;;5011044;28;20100;-77
2021/06/08 05:05:55;;;;;;;20.02;12.52;;;18.40;99.90;;;;;;5012508;28;20077;-77
2021/06/08 05:08:33;;;;;;;23.60;13.35;;;18.50;99.90;;;;;;5008439;28;20065;-78
2021/06/08 05:11:14;;;;;;;18.67;12.25;;;18.40;99.90;;;;;;5011584;28;20042;-79
2021/06/08 05:13:46;;;;;;;17.23;11.57;;;18.30;99.90;;;;;;5007256;28;20497;-77
2021/06/08 05:16:15;;;;;;;16.30;12.00;;;18.50;99.90;;;;;;5017670;28;20165;-78
2021/06/08 05:18:45;;;;;;;18.48;12.20;;;18.50;99.90;;;;;;5006646;28;20485;-78
2021/06/08 05:21:16;;;;;;;22.02;12.98;;;18.50;99.90;;;;;;5038734;28;20170;-76
2021/06/08 05:23:43;;;;;;;19.27;12.07;;;18.60;99.90;;;;;;5012284;28;20469;-77
2021/06/08 05:26:11;;;;;;;18.85;12.30;;;18.50;99.90;;;;;;4989267;28;20069;-78
2021/06/08 05:28:40;;;;;;;17.58;11.70;;;18.40;99.90;;;;;;5009065;28;20054;-77
2021/06/08 05:31:07;;;;;;;18.23;12.38;;;18.40;99.90;;;;;;5006011;28;20053;-78
2021/06/08 05:33:34;;;;;;;18.27;12.10;;;18.50;99.90;;;;;;5008306;28;20050;-79
2021/06/08 05:36:02;;;;;;;19.40;12.80;;;18.60;99.90;;;;;;5008319;28;20042;-78
2021/06/08 05:38:33;;;;;;;16.77;12.65;;;18.60;99.90;;;;;;5008648;28;20116;-75
2021/06/08 05:41:04;;;;;;;18.33;12.75;;;18.60;99.90;;;;;;5006517;28;20053;-74
2021/06/08 05:43:32;;;;;;;22.08;13.10;;;18.60;99.90;;;;;;5015766;28;20525;-75
2021/06/08 05:45:59;;;;;;;20.58;13.18;;;18.60;99.90;;;;;;5008630;28;20076;-75
2021/06/08 05:48:26;;;;;;;20.05;12.13;;;18.60;99.90;;;;;;5010915;28;20508;-75
2021/06/08 05:51:00;;;;;;;21.25;12.57;;;18.70;99.90;;;;;;5009265;28;20104;-76
2021/06/08 05:53:28;;;;;;;20.58;13.18;;;18.70;99.90;;;;;;5008602;28;20046;-74
2021/06/08 05:55:57;;;;;;;17.20;11.05;;;18.80;99.90;;;;;;5009160;28;20081;-75
2021/06/08 05:58:25;;;;;;;17.98;11.95;;;18.70;99.90;;;;;;5043501;28;20115;-74
2021/06/08 06:00:53;;;;;;;17.33;11.43;;;18.70;99.90;;;;;;5021471;28;20046;-75
2021/06/08 06:03:22;;;;;;;18.85;11.65;;;18.70;99.90;;;;;;5007314;28;20038;-75
2021/06/08 06:05:52;;;;;;;22.30;11.77;;;18.70;99.90;;;;;;5010759;28;20073;-74
2021/06/08 06:08:19;;;;;;;18.85;11.68;;;18.80;99.90;;;;;;5036960;28;20141;-76
2021/06/08 06:10:46;;;;;;;28.67;17.58;;;18.80;99.90;;;;;;5036032;28;20448;-74
2021/06/08 06:13:18;;;;;;;19.90;12.10;;;18.70;99.90;;;;;;5009506;28;20076;-75
2021/06/08 06:15:49;;;;;;;19.25;12.30;;;18.80;99.90;;;;;;5007397;28;20074;-74
2021/06/08 06:18:18;;;;;;;18.48;12.23;;;18.70;99.90;;;;;;5026256;28;20072;-73
2021/06/08 06:20:49;;;;;;;19.77;11.25;;;18.70;99.90;;;;;;5010990;28;20046;-74
2021/06/08 06:23:17;;;;;;;15.80;11.10;;;18.90;99.90;;;;;;5009574;28;20058;-74
2021/06/08 06:25:44;;;;;;;15.98;11.48;;;18.80;99.90;;;;;;5013656;28;20054;-73
2021/06/08 06:28:13;;;;;;;16.48;11.38;;;18.90;99.90;;;;;;5009337;28;20057;-74
2021/06/08 06:30:41;;;;;;;16.90;11.80;;;18.80;99.90;;;;;;5007855;28;20493;-75
2021/06/08 06:33:08;;;;;;;16.75;11.13;;;19.00;99.90;;;;;;5010857;28;20053;-74
2021/06/08 06:35:35;;;;;;;16.90;10.93;;;19.00;99.90;;;;;;5010652;28;20125;-74
2021/06/08 06:38:04;;;;;;;18.05;11.50;;;19.00;99.90;;;;;;5006916;28;20085;-74
2021/06/08 06:40:33;;;;;;;19.42;11.63;;;19.00;99.90;;;;;;5010284;28;20168;-74
2021/06/08 06:43:04;;;;;;;16.23;11.35;;;19.10;99.90;;;;;;5012527;28;20133;-74
2021/06/08 06:45:35;;;;;;;14.40;11.23;;;19.10;99.90;;;;;;5010314;28;20053;-74
2021/06/08 06:48:02;;;;;;;;;;;19.10;99.90;;;;;;5013647;28;20625;-74
2021/06/08 06:50:34;;;;;;;17.42;10.40;;;19.10;99.90;;;;;;5012927;28;19925;-74
2021/06/08 06:53:01;;;;;;;16.23;11.13;;;19.30;99.90;;;;;;5009554;28;20130;-74
2021/06/08 06:55:39;;;;;;;18.67;11.27;;;19.50;99.90;;;;;;5008685;28;20081;-75
2021/06/08 06:58:07;;;;;;;14.75;10.95;;;19.60;99.90;;;;;;5006290;28;20377;-74
2021/06/08 07:00:34;;;;;;;16.75;11.13;;;19.80;99.90;;;;;;5006319;28;20449;-74
2021/06/08 07:03:03;;;;;;;18.88;11.20;;;19.80;99.90;;;;;;5008449;28;20713;-75
2021/06/08 07:05:32;;;;;;;16.17;10.80;;;19.90;99.90;;;;;;5007372;28;20054;-75
2021/06/08 07:08:03;;;;;;;15.98;10.80;;;19.80;99.90;;;;;;5021824;28;20520;-75
2021/06/08 07:10:30;;;;;;;18.17;11.25;;;19.80;99.90;;;;;;5008272;28;20111;-75
2021/06/08 07:13:03;;;;;;;14.80;10.77;;;19.80;99.90;;;;;;5009251;28;20054;-75
2021/06/08 07:15:30;;;;;;;16.80;11.70;;;19.90;99.90;;;;;;5004013;28;20061;-75
2021/06/08 07:17:57;;;;;;;13.55;10.38;;;20.10;99.90;;;;;;5015206;28;20080;-74
2021/06/08 07:20:26;;;;;;;14.80;10.90;;;20.30;99.90;;;;;;5007755;28;20042;-75
2021/06/08 07:22:53;;;;;;;15.52;10.82;;;20.30;99.90;;;;;;5007102;28;20515;-75
2021/06/08 07:25:21;;;;;;;16.95;11.05;;;20.50;99.90;;;;;;5013857;28;20050;-75
2021/06/08 07:27:49;;;;;;;16.38;11.57;;;20.50;99.90;;;;;;5006287;28;20077;-75
2021/06/08 07:30:17;;;;;;;15.57;10.82;;;20.50;99.90;;;;;;5006483;28;20141;-74
2021/06/08 07:33:08;;;;;;;14.80;10.60;;;20.60;99.90;;;;;;5006774;28;20116;-75
2021/06/08 07:35:35;;;;;;;16.05;11.05;;;20.30;99.90;;;;;;4998231;28;20485;-75
2021/06/08 07:38:09;;;;;;;17.55;11.77;;;20.30;99.90;;;;;;5002762;28;21443;-75
2021/06/08 07:40:41;;;;;;;15.43;10.55;;;20.50;99.90;;;;;;5004131;28;20140;-78
2021/06/08 07:43:11;;;;;;;17.38;10.55;;;20.40;99.90;;;;;;4996036;28;20049;-75
2021/06/08 07:45:43;;;;;;;13.02;10.07;;;20.50;99.90;;;;;;4988241;28;20116;-74
2021/06/08 07:48:16;;;;;;;13.93;10.68;;;20.50;99.90;;;;;;4989382;28;20078;-74
2021/06/08 07:50:49;;;;;;;16.23;11.82;;;20.60;99.90;;;;;;5006072;28;20132;-75
2021/06/08 07:53:22;;;;;;;15.20;10.15;;;20.60;99.90;;;;;;4992005;28;20048;-74
2021/06/08 07:55:50;;;;;;;19.27;10.55;;;20.80;99.90;;;;;;4989800;28;20049;-74
2021/06/08 07:58:23;;;;;;;14.02;10.95;;;21.00;99.90;;;;;;4990883;28;20790;-74
2021/06/08 08:00:52;;;;;;;17.20;9.93;;;21.10;99.90;;;;;;4989854;28;20108;-75
2021/06/08 08:03:29;;;;;;;16.53;10.00;;;21.20;99.90;;;;;;4992444;28;20050;-74
2021/06/08 08:06:03;;;;;;;16.27;9.82;;;21.20;99.90;;;;;;4989921;28;20050;-75
2021/06/08 08:08:33;;;;;;;19.98;10.25;;;21.40;99.90;;;;;;4990410;28;20054;-73
2021/06/08 08:11:01;;;;;;;13.00;10.45;;;21.40;99.90;;;;;;4992140;28;20058;-74
2021/06/08 08:13:29;;;;;;;12.75;9.57;;;21.40;99.90;;;;;;4991821;28;20144;-74
2021/06/08 08:16:05;;;;;;;13.88;10.07;;;21.50;99.90;;;;;;4991180;28;20486;-73
2021/06/08 08:18:34;;;;;;;14.90;10.95;;;21.30;99.90;;;;;;4990944;28;20053;-74
2021/06/08 08:21:02;;;;;;;15.57;10.70;;;21.20;99.90;;;;;;4991512;28;20058;-74
2021/06/08 08:23:30;;;;;;;14.73;10.68;;;21.30;99.90;;;;;;4992116;28;20550;-74
2021/06/08 08:26:06;;;;;;;11.75;9.77;;;21.30;99.90;;;;;;4990329;28;20144;-74
2021/06/08 08:28:35;;;;;;;14.38;9.45;;;21.50;99.90;;;;;;5012094;28;20060;-74
2021/06/08 08:31:06;;;;;;;16.88;10.25;;;21.70;99.90;;;;;;4989970;28;20086;-74
2021/06/08 08:33:33;;;;;;;17.33;9.30;;;21.90;99.40;;;;;;4991461;28;20175;-74
2021/06/08 08:36:01;;;;;;;17.52;9.88;;;22.00;98.90;;;;;;4991781;28;20065;-74
2021/06/08 08:38:29;;;;;;;22.17;10.82;;;21.90;99.30;;;;;;4987779;28;20133;-75
2021/06/08 08:40:58;;;;;;;20.08;9.85;;;22.20;98.60;;;;;;4989356;28;20119;-75
2021/06/08 08:43:41;;;;;;;17.38;10.48;;;22.30;98.20;;;;;;4989875;28;20503;-74
2021/06/08 08:46:08;;;;;;;15.70;10.00;;;22.50;97.40;;;;;;4991829;28;20074;-74
2021/06/08 08:48:38;;;;;;;21.38;10.93;;;22.40;97.50;;;;;;4989718;28;20087;-76
2021/06/08 08:51:05;;;;;;;15.47;10.43;;;22.40;96.90;;;;;;4992021;28;20184;-75
2021/06/08 08:53:35;;;;;;;15.18;9.93;;;22.50;96.60;;;;;;4991954;28;20081;-75
2021/06/08 08:56:31;;;;;;;16.00;10.32;;;22.50;96.40;;;;;;4992251;28;20185;-75
2021/06/08 08:59:13;;;;;;;15.95;10.23;;;22.60;96.40;;;;;;4992588;28;20122;-75
2021/06/08 09:01:43;;;;;;;14.02;9.95;;;22.80;95.60;;;;;;4994031;28;20053;-75
2021/06/08 09:04:10;;;;;;;15.65;10.73;;;22.70;95.50;;;;;;4994219;28;20505;-75
2021/06/08 09:06:37;;;;;;;16.35;10.13;;;22.80;95.50;;;;;;4995347;28;20663;-75
2021/06/08 09:09:07;;;;;;;16.70;9.93;;;22.90;95.50;;;;;;4993321;28;20137;-81
2021/06/08 09:11:42;;;;;;;15.93;10.80;;;23.10;95.00;;;;;;4995026;28;20062;-74
2021/06/08 09:14:13;;;;;;;14.15;9.75;;;23.10;94.60;;;;;;4996132;28;20053;-74
2021/06/08 09:16:40;;;;;;;15.15;10.50;;;23.20;95.10;;;;;;4994197;28;20136;-74
2021/06/08 09:19:10;;;;;;;16.70;10.60;;;23.30;93.70;;;;;;4992464;28;20402;-74
2021/06/08 09:21:39;;;;;;;13.33;9.80;;;23.20;93.70;;;;;;4993473;28;20086;-74
2021/06/08 09:24:19;;;;;;;13.23;9.68;;;23.40;93.30;;;;;;4993737;28;20305;-74
2021/06/08 09:26:55;;;;;;;15.15;10.52;;;23.40;93.20;;;;;;4992433;28;20136;-74
2021/06/08 09:29:39;;;;;;;14.73;10.35;;;23.30;92.80;;;;;;4995210;28;20165;-74
2021/06/08 09:32:22;;;;;;;17.73;10.63;;;23.30;93.10;;;;;;4994192;28;20501;-74
2021/06/08 09:34:58;;;;;;;19.83;10.30;;;23.40;93.00;;;;;;4993769;28;20050;-75
2021/06/08 09:37:39;;;;;;;14.32;10.20;;;23.60;92.40;;;;;;4991753;28;20077;-75
2021/06/08 09:40:19;;;;;;;17.63;11.38;;;23.70;91.90;;;;;;4991690;28;20421;-75
2021/06/08 09:42:48;;;;;;;17.55;10.65;;;23.70;92.00;;;;;;4994851;28;21452;-80
2021/06/08 09:45:23;;;;;;;14.15;10.10;;;23.60;91.70;;;;;;4996146;28;20078;-75
2021/06/08 09:47:58;;;;;;;14.65;10.32;;;23.60;91.90;;;;;;5012992;28;20084;-74
2021/06/08 09:50:34;;;;;;;12.75;10.20;;;23.50;91.90;;;;;;4994832;28;20577;-75
2021/06/08 09:53:15;;;;;;;17.05;11.60;;;23.70;91.20;;;;;;4993706;28;20794;-75
2021/06/08 09:56:04;;;;;;;13.43;10.35;;;23.50;91.90;;;;;;5013330;28;20474;-74
2021/06/08 09:58:32;;;;;;;14.52;10.55;;;23.60;91.50;;;;;;4994431;28;20141;-74
2021/06/08 10:01:19;;;;;;;18.52;10.82;;;23.50;92.10;;;;;;4991513;28;20129;-74
2021/06/08 10:03:58;;;;;;;18.02;10.50;;;23.60;91.20;;;;;;4993688;28;20060;-76
2021/06/08 10:06:39;;;;;;;17.88;11.35;;;23.70;91.00;;;;;;4990316;28;20109;-73
2021/06/08 10:09:10;;;;;;;17.48;10.85;;;23.90;91.00;;;;;;4992634;28;20163;-72
2021/06/08 10:11:39;;;;;;;13.00;9.93;;;23.90;90.90;;;;;;4991668;28;20469;-73
2021/06/08 10:14:13;;;;;;;14.50;10.70;;;23.80;90.90;;;;;;4993205;28;20064;-76
2021/06/08 10:16:40;;;;;;;16.73;11.18;;;23.70;91.10;;;;;;4993616;28;21231;-75
2021/06/08 10:19:08;;;;;;;15.65;11.40;;;23.60;91.30;;;;;;5006927;28;20056;-74
2021/06/08 10:21:48;;;;;;;15.98;11.30;;;23.50;90.70;;;;;;4992979;28;20046;-74
2021/06/08 10:24:21;;;;;;;18.75;10.57;;;23.40;91.40;;;;;;4991942;28;20552;-74
2021/06/08 10:26:51;;;;;;;18.23;10.60;;;23.70;91.40;;;;;;4990275;28;20120;-74
2021/06/08 10:29:26;;;;;;;17.55;11.90;;;23.80;91.90;;;;;;4990814;28;20100;-74
2021/06/08 10:31:54;;;;;;;15.18;11.55;;;23.90;90.20;;;;;;4989446;28;20148;-76
2021/06/08 10:34:40;;;;;;;15.50;11.80;;;23.80;90.60;;;;;;4991752;28;20065;-74
2021/06/08 10:37:08;;;;;;;17.65;12.00;;;23.90;89.70;;;;;;5020636;28;20599;-75
2021/06/08 10:39:35;;;;;;;14.35;11.43;;;23.90;89.00;;;;;;4989569;28;20068;-74
2021/06/08 10:42:02;;;;;;;15.00;11.20;;;23.80;89.00;;;;;;4989586;28;20047;-74
2021/06/08 10:44:29;;;;;;;15.00;11.05;;;23.80;90.40;;;;;;4989075;28;20056;-74
2021/06/08 10:47:00;;;;;;;13.85;10.45;;;23.70;90.30;;;;;;5000994;28;20077;-74
2021/06/08 10:49:34;;;;;;;15.98;11.25;;;23.70;91.00;;;;;;4999296;28;20108;-74
2021/06/08 10:52:12;;;;;;;14.10;10.75;;;23.70;89.90;;;;;;5002255;28;20134;-75
2021/06/08 10:54:48;;;;;;;13.80;10.57;;;23.40;90.80;;;;;;5002506;28;20138;-75
2021/06/08 10:57:17;;;;;;;19.08;11.45;;;23.50;90.60;;;;;;5002431;28;20203;-76
2021/06/08 10:59:49;;;;;;;16.15;11.65;;;23.50;90.60;;;;;;5021852;28;20054;-75
2021/06/08 11:02:43;;;;;;;14.10;11.52;;;23.40;91.80;;;;;;5001857;28;20100;-76
2021/06/08 11:05:10;;;;;;;14.70;10.95;;;23.40;90.70;;;;;;5001399;28;20153;-75
2021/06/08 11:07:53;;;;;;;13.70;11.02;;;23.30;90.60;;;;;;5002519;28;20172;-74
2021/06/08 11:10:26;;;;;;;16.48;10.80;;;23.40;90.80;;;;;;5023328;28;20054;-74
2021/06/08 11:13:12;;;;;;;17.50;11.57;;;23.20;90.70;;;;;;4999267;28;20081;-75
2021/06/08 11:15:51;;;;;;;16.92;11.02;;;23.10;91.00;;;;;;4998147;28;20593;-75
2021/06/08 11:18:27;;;;;;;13.80;10.95;;;23.30;91.30;;;;;;5000813;28;20057;-75
2021/06/08 11:20:57;;;;;;;14.23;10.27;;;23.50;90.40;;;;;;5001204;28;20050;-74
2021/06/08 11:23:32;;;;;;;15.30;10.05;;;23.60;90.10;;;;;;5000426;28;20078;-75
2021/06/08 11:26:00;;;;;;;16.70;10.50;;;23.40;88.00;;;;;;5001635;28;20085;-74
2021/06/08 11:28:47;;;;;;;14.75;10.73;;;23.40;88.90;;;;;;4998950;28;20111;-77
2021/06/08 11:31:17;;;;;;;13.63;10.57;;;23.40;88.60;;;;;;5000310;28;20079;-78
2021/06/08 11:33:48;;;;;;;17.25;11.20;;;23.60;88.20;;;;;;5001530;28;20049;-77
2021/06/08 11:36:18;;;;;;;14.77;10.70;;;23.80;87.80;;;;;;4998677;28;20405;-77
2021/06/08 11:38:50;;;;;;;13.90;10.57;;;23.70;86.80;;;;;;5001607;28;20100;-76
2021/06/08 11:41:18;;;;;;;14.80;10.07;;;23.80;87.10;;;;;;5002039;28;20057;-76
2021/06/08 11:43:46;;;;;;;16.25;10.73;;;23.70;86.90;;;;;;4996285;28;20144;-78
2021/06/08 11:46:27;;;;;;;14.48;10.48;;;23.70;88.30;;;;;;5022466;28;20073;-78
2021/06/08 11:49:05;;;;;;;16.85;11.18;;;23.60;86.80;;;;;;5000474;28;20054;-76
2021/06/08 11:51:36;;;;;;;13.45;10.13;;;23.60;86.70;;;;;;4997886;28;20089;-76
2021/06/08 11:54:13;;;;;;;19.67;11.38;;;23.60;87.70;;;;;;4999744;28;20644;-77
2021/06/08 11:57:12;;;;;;;20.38;11.55;;;23.80;87.00;;;;;;5002559;28;20145;-78
2021/06/08 11:59:46;;;;;;;21.23;10.68;;;23.90;87.10;;;;;;5000840;28;20202;-78
2021/06/08 12:02:32;;;;;;;17.58;12.50;;;23.90;86.50;;;;;;5002904;28;20760;-76
2021/06/08 12:05:04;;;;;;;15.52;10.63;;;23.90;86.80;;;;;;5002524;28;20060;-77
2021/06/08 12:07:42;;;;;;;33.75;20.48;;;24.00;86.00;;;;;;5020769;28;20050;-77
2021/06/08 12:10:09;;;;;;;14.38;10.82;;;24.00;85.30;;;;;;5000456;28;21719;-77
2021/06/08 12:12:44;;;;;;;17.73;12.00;;;23.90;85.70;;;;;;5001266;28;20049;-77
2021/06/08 12:15:20;;;;;;;37.03;18.13;;;24.00;85.60;;;;;;4997365;28;20391;-74
2021/06/08 12:17:59;;;;;;;32.20;20.65;;;24.10;85.80;;;;;;5000707;28;20046;-75
2021/06/08 12:20:26;;;;;;;20.20;13.25;;;24.30;84.80;;;;;;5001752;28;20124;-76
2021/06/08 12:22:54;;;;;;;16.00;11.32;;;24.10;85.00;;;;;;5002665;28;20485;-77
2021/06/08 12:25:21;;;;;;;17.70;12.18;;;24.20;85.00;;;;;;5000971;28;20086;-78
2021/06/08 12:27:49;;;;;;;16.13;12.05;;;24.50;85.10;;;;;;5001573;28;20157;-77
2021/06/08 12:30:31;;;;;;;23.88;13.93;;;25.20;81.90;;;;;;5002639;28;20148;-75
2021/06/08 12:33:04;;;;;;;16.33;10.85;;;25.90;79.30;;;;;;4999939;28;20053;-78
2021/06/08 12:35:38;;;;;;;27.33;19.75;;;25.50;79.50;;;;;;5002244;28;21387;-77
2021/06/08 12:38:22;;;;;;;64.63;37.40;;;25.30;79.70;;;;;;5005754;28;20100;-77
2021/06/08 12:41:09;;;;;;;15.60;12.05;;;24.90;81.10;;;;;;4999002;28;20054;-76
2021/06/08 12:43:47;;;;;;;20.75;12.75;;;24.70;82.70;;;;;;5004238;28;20085;-76
2021/06/08 12:46:36;;;;;;;15.65;10.82;;;24.50;82.40;;;;;;5005789;28;20079;-75
2021/06/08 12:49:12;;;;;;;15.05;9.95;;;24.30;82.40;;;;;;5002238;28;20117;-75